Time;durP1;ratioP1;P1;durP2;ratioP2;P2;SDS_P1;SDS_P2;PMS_P1;PMS_P2;Temp;Humidity;BMP_temperature;BMP_pressure;BME280_temperature;BME280_humidity;BME280_pressure;Samples;Min_cycle;Max_cycle;Signal;HPM_P1;HPM_P2
2023/04/02 00:02:01;;;;;;;0.6;0.4;;;;;;;6.61;79.46973;930.0404;;;;
2023/04/02 00:05:54;;;;;;;0.5;0.4;;;;;;;6.64;79.32813;930.0494;;;;
2023/04/02 00:08:16;;;;;;;0.6;0.5;;;;;;;6.56;79.5957;930.0742;;;;
2023/04/02 00:10:42;;;;;;;0.6;0.4;;;;;;;6.62;79.2793;930.1339;;;;
2023/04/02 00:13:07;;;;;;;0.8;0.5;;;;;;;6.61;79.46973;930.0229;;;;
2023/04/02 00:15:34;;;;;;;0.8;0.6;;;;;;;6.62;79.84375;930.114;;;;
2023/04/02 00:18:00;;;;;;;0.5;0.5;;;;;;;6.66;79.62598;930.1588;;;;
2023/04/02 00:20:49;;;;;;;0.9;0.6;;;;;;;6.75;79.25781;930.1328;;;;
2023/04/02 00:23:14;;;;;;;0.4;0.4;;;;;;;6.78;79.1377;930.1592;;;;
2023/04/02 00:25:44;;;;;;;0.5;0.5;;;;;;;6.82;79.22559;930.1923;;;;
2023/04/02 00:28:08;;;;;;;0.5;0.4;;;;;;;6.79;79.06055;930.2344;;;;
2023/04/02 00:30:36;;;;;;;0.6;0.5;;;;;;;6.78;79.36621;930.2383;;;;
2023/04/02 00:33:04;;;;;;;0.7;0.6;;;;;;;6.85;78.91504;930.3367;;;;
2023/04/02 00:35:30;;;;;;;2.7;1;;;;;;;6.83;79.20508;930.3736;;;;
2023/04/02 00:37:55;;;;;;;1.1;1;;;;;;;6.92;79.20996;930.3658;;;;
2023/04/02 00:40:23;;;;;;;0.7;0.6;;;;;;;6.94;79.02051;930.3439;;;;
2023/04/02 00:42:55;;;;;;;1;0.5;;;;;;;6.95;78.60547;930.3448;;;;
2023/04/02 00:45:20;;;;;;;0.6;0.5;;;;;;;6.93;78.2041;930.3098;;;;
2023/04/02 00:47:45;;;;;;;0.6;0.3;;;;;;;6.97;78.7998;930.2809;;;;
2023/04/02 00:50:18;;;;;;;0.8;0.5;;;;;;;6.89;79.56738;930.3173;;;;
2023/04/02 00:52:47;;;;;;;1.2;0.6;;;;;;;6.85;79.50195;930.3414;;;;
2023/04/02 00:55:12;;;;;;;0.4;0.4;;;;;;;6.89;79.49902;930.3956;;;;
2023/04/02 00:57:37;;;;;;;1.6;0.5;;;;;;;6.9;79.52344;930.3847;;;;
2023/04/02 01:00:28;;;;;;;1.4;0.5;;;;;;;6.91;79.80859;930.3689;;;;
2023/04/02 01:02:53;;;;;;;1;0.5;;;;;;;6.87;79.96973;930.3448;;;;
2023/04/02 01:05:18;;;;;;;0.5;0.5;;;;;;;6.8;80.19531;930.3596;;;;
2023/04/02 01:07:46;;;;;;;0.8;0.4;;;;;;;6.7;80.53906;930.4891;;;;
2023/04/02 01:10:16;;;;;;;0.2;0.2;;;;;;;6.52;80.6416;930.4638;;;;
2023/04/02 01:12:41;;;;;;;0.6;0.6;;;;;;;6.57;80.8418;930.4453;;;;
2023/04/02 01:15:06;;;;;;;2.3;1.1;;;;;;;6.55;82.15039;930.449;;;;
2023/04/02 01:17:31;;;;;;;1.1;1;;;;;;;6.46;81.68066;930.4813;;;;
2023/04/02 01:20:00;;;;;;;1.6;1;;;;;;;6.54;81.45898;930.555;;;;
2023/04/02 01:22:41;;;;;;;2.2;0.9;;;;;;;6.64;81.14844;930.5215;;;;
2023/04/02 01:25:08;;;;;;;1.2;0.8;;;;;;;6.75;80.72754;930.4991;;;;
2023/04/02 01:27:33;;;;;;;0.8;0.8;;;;;;;6.81;80.58105;930.5661;;;;
2023/04/02 01:29:58;;;;;;;1.5;0.9;;;;;;;6.86;80.35352;930.6105;;;;
2023/04/02 01:32:23;;;;;;;1.7;1;;;;;;;6.77;80.52832;930.6188;;;;
2023/04/02 01:34:50;;;;;;;2.3;1.1;;;;;;;6.64;81.19531;930.6181;;;;
2023/04/02 01:37:16;;;;;;;1.4;0.8;;;;;;;6.72;81.20996;930.5881;;;;
2023/04/02 01:39:44;;;;;;;4.3;3.5;;;;;;;6.67;81.37207;930.6326;;;;
2023/04/02 01:42:11;;;;;;;10.4;8.9;;;;;;;6.71;81.27637;930.5603;;;;
2023/04/02 01:44:36;;;;;;;27.7;19.7;;;;;;;6.66;81.52637;930.5385;;;;
2023/04/02 01:47:02;;;;;;;2.7;1.6;;;;;;;6.62;81.44043;930.5578;;;;
2023/04/02 01:49:27;;;;;;;2.1;1.9;;;;;;;6.49;81.98242;930.6342;;;;
2023/04/02 01:54:56;;;;;;;0.8;0.8;;;;;;;6.33;82.28809;930.6572;;;;
2023/04/02 01:57:19;;;;;;;0.8;0.7;;;;;;;6.35;81.72852;930.6647;;;;
2023/04/02 01:59:48;;;;;;;0.5;0.5;;;;;;;6.26;81.43945;930.6287;;;;
2023/04/02 02:02:14;;;;;;;0.8;0.8;;;;;;;6.19;81.56152;930.7366;;;;
2023/04/02 02:04:39;;;;;;;1.6;1.2;;;;;;;6.18;81.67285;930.6598;;;;
2023/04/02 02:07:04;;;;;;;0.9;0.9;;;;;;;5.91;82.22168;930.7048;;;;
2023/04/02 02:09:33;;;;;;;1.1;0.8;;;;;;;5.6;84.0459;930.7388;;;;
2023/04/02 02:12:02;;;;;;;1.1;0.7;;;;;;;5.6;84.40527;930.6573;;;;
2023/04/02 02:14:26;;;;;;;1;0.8;;;;;;;5.64;84.51563;930.8003;;;;
2023/04/02 02:16:52;;;;;;;0.7;0.6;;;;;;;5.7;84.80859;930.8203;;;;
2023/04/02 02:28:12;;;;;;;1.1;0.6;;;;;;;5.84;84.65625;930.949;;;;
2023/04/02 02:30:38;;;;;;;2.1;0.7;;;;;;;5.92;84.37891;930.9048;;;;
2023/04/02 02:33:03;;;;;;;0.6;0.6;;;;;;;5.91;84.11914;930.8881;;;;
2023/04/02 02:35:53;;;;;;;0.6;0.6;;;;;;;5.88;84.13477;930.907;;;;
2023/04/02 02:39:29;;;;;;;0.6;0.6;;;;;;;5.86;84.18555;930.9019;;;;
2023/04/02 02:41:55;;;;;;;0.9;0.9;;;;;;;5.78;84.38477;930.962;;;;
2023/04/02 02:44:21;;;;;;;0.8;0.8;;;;;;;5.71;84.6416;930.8669;;;;
2023/04/02 02:46:46;;;;;;;0.6;0.6;;;;;;;5.67;84.52148;930.9249;;;;
2023/04/02 02:49:11;;;;;;;1.6;1.1;;;;;;;5.68;84.4668;930.9289;;;;
2023/04/02 02:51:37;;;;;;;0.7;0.7;;;;;;;5.78;83.81055;930.9716;;;;
2023/04/02 02:54:02;;;;;;;2.4;1;;;;;;;5.66;84.04688;931.055;;;;
2023/04/02 02:56:27;;;;;;;0.8;0.8;;;;;;;5.62;84.10547;931.1064;;;;
2023/04/02 02:58:52;;;;;;;0.8;0.5;;;;;;;5.63;83.71387;931.0885;;;;
2023/04/02 03:01:21;;;;;;;1.3;0.7;;;;;;;5.71;83.1748;931.0463;;;;
2023/04/02 03:03:46;;;;;;;2;0.7;;;;;;;5.67;83.26758;931.0984;;;;
2023/04/02 03:06:15;;;;;;;2;1;;;;;;;5.43;84.20215;931.1385;;;;
2023/04/02 03:08:39;;;;;;;0.5;0.5;;;;;;;5.39;84.44336;931.0806;;;;
2023/04/02 03:11:06;;;;;;;1.3;1.2;;;;;;;5.37;84.63184;931.127;;;;
2023/04/02 03:17:06;;;;;;;3.7;3.1;;;;;;;5.24;84.62891;931.1319;;;;
2023/04/02 03:19:30;;;;;;;3.9;3.5;;;;;;;5.24;84.53906;931.1509;;;;
2023/04/02 03:21:56;;;;;;;1.3;1.2;;;;;;;5.17;84.87598;931.1895;;;;
2023/04/02 03:24:21;;;;;;;0.8;0.8;;;;;;;5.12;85.31445;931.1855;;;;
2023/04/02 03:26:46;;;;;;;2.1;1;;;;;;;4.87;86.58594;931.2074;;;;
2023/04/02 03:29:11;;;;;;;1.3;0.7;;;;;;;4.81;86.94238;931.1746;;;;
2023/04/02 03:31:43;;;;;;;0.7;0.6;;;;;;;4.77;86.77637;931.2026;;;;
2023/04/02 03:34:10;;;;;;;0.6;0.6;;;;;;;4.69;86.79492;931.2525;;;;
2023/04/02 03:36:37;;;;;;;1.5;0.5;;;;;;;4.66;86.8125;931.1887;;;;
2023/04/02 03:39:00;;;;;;;2.3;0.5;;;;;;;4.71;86.24707;931.2615;;;;
2023/04/02 03:41:26;;;;;;;0.6;0.4;;;;;;;4.73;85.7793;931.3172;;;;
2023/04/02 03:43:52;;;;;;;0.6;0.6;;;;;;;4.67;86.26172;931.3522;;;;
2023/04/02 03:46:17;;;;;;;0.4;0.3;;;;;;;4.55;86.65332;931.3572;;;;
2023/04/02 03:48:43;;;;;;;1;0.7;;;;;;;4.51;86.64355;931.3265;;;;
2023/04/02 03:51:08;;;;;;;0.6;0.5;;;;;;;4.5;86.76758;931.3596;;;;
2023/04/02 03:54:45;;;;;;;0.5;0.5;;;;;;;4.53;86.23242;931.3317;;;;
2023/04/02 03:57:13;;;;;;;1;0.5;;;;;;;4.52;85.75781;931.427;;;;
2023/04/02 03:59:38;;;;;;;0.5;0.5;;;;;;;4.43;86.20117;931.3738;;;;
2023/04/02 04:02:34;;;;;;;0.6;0.6;;;;;;;4.32;87.31641;931.3681;;;;
2023/04/02 04:04:59;;;;;;;1.1;0.6;;;;;;;4.18;87.98633;931.405;;;;
2023/04/02 04:07:24;;;;;;;1.1;0.6;;;;;;;4.11;88.73633;931.3964;;;;
2023/04/02 04:09:49;;;;;;;1.3;0.6;;;;;;;4.09;88.91211;931.44;;;;
2023/04/02 04:12:14;;;;;;;1;0.6;;;;;;;4.18;88.34375;931.4868;;;;
2023/04/02 04:14:39;;;;;;;0.7;0.6;;;;;;;4.21;87.89063;931.4814;;;;
2023/04/02 04:17:05;;;;;;;1.1;0.6;;;;;;;4.26;87.11426;931.5527;;;;
2023/04/02 04:19:31;;;;;;;0.6;0.5;;;;;;;4.26;86.61719;931.6219;;;;
2023/04/02 04:22:00;;;;;;;0.6;0.6;;;;;;;4.15;86.96582;931.5799;;;;
2023/04/02 04:24:27;;;;;;;2.1;0.6;;;;;;;4.13;87.29004;931.6174;;;;
2023/04/02 04:27:34;;;;;;;1.8;0.7;;;;;;;4.1;87.4502;931.637;;;;
2023/04/02 04:29:58;;;;;;;0.9;0.7;;;;;;;3.83;88.62109;931.6943;;;;
2023/04/02 04:32:26;;;;;;;0.8;0.8;;;;;;;3.79;89.15137;931.7184;;;;
2023/04/02 04:34:52;;;;;;;2.3;2.2;;;;;;;3.83;89.05957;931.8038;;;;
2023/04/02 04:37:20;;;;;;;2.3;1.4;;;;;;;3.91;88.69238;931.8308;;;;
2023/04/02 04:39:43;;;;;;;1.2;1.1;;;;;;;3.92;88.16602;931.8886;;;;
2023/04/02 04:42:11;;;;;;;1.1;1.1;;;;;;;3.89;88.23926;932.0351;;;;
2023/04/02 04:44:36;;;;;;;1.6;1.1;;;;;;;3.89;88.05957;931.9903;;;;
2023/04/02 04:47:01;;;;;;;2.4;1;;;;;;;3.99;87.85449;932.0438;;;;
2023/04/02 04:49:26;;;;;;;1.8;1.1;;;;;;;3.9;88.15332;932.0134;;;;
2023/04/02 04:51:52;;;;;;;5.9;3.2;;;;;;;4;87.88086;932.1457;;;;
2023/04/02 04:54:17;;;;;;;3.1;1.9;;;;;;;4;88.04785;932.1937;;;;
2023/04/02 04:56:52;;;;;;;2.2;1.8;;;;;;;3.9;88.72461;932.2062;;;;
2023/04/02 04:59:17;;;;;;;3.5;1.7;;;;;;;3.97;88.9873;932.1828;;;;
2023/04/02 05:01:42;;;;;;;5;2.5;;;;;;;3.96;88.75977;932.2378;;;;
2023/04/02 05:04:08;;;;;;;4.1;2.4;;;;;;;3.9;89.1084;932.2316;;;;
2023/04/02 05:06:33;;;;;;;4.3;2.7;;;;;;;3.94;89.1709;932.1867;;;;
2023/04/02 05:08:59;;;;;;;2.8;2.3;;;;;;;3.91;89.32422;932.2294;;;;
2023/04/02 05:11:25;;;;;;;3.2;2.4;;;;;;;3.97;89.03418;932.2396;;;;
2023/04/02 05:13:49;;;;;;;2.5;2.3;;;;;;;3.99;88.92285;932.2595;;;;
2023/04/02 05:16:19;;;;;;;3.5;2;;;;;;;4.01;89.08398;932.2028;;;;
2023/04/02 05:18:44;;;;;;;3.9;1.8;;;;;;;4.07;88.77148;932.1941;;;;
2023/04/02 05:21:09;;;;;;;2.5;1.7;;;;;;;4.04;88.91211;932.2469;;;;
2023/04/02 05:23:34;;;;;;;1.6;1.5;;;;;;;4.05;89.15039;932.2944;;;;
2023/04/02 05:26:05;;;;;;;1.3;1.2;;;;;;;4.07;89.04297;932.3281;;;;
2023/04/02 05:28:30;;;;;;;1.1;1;;;;;;;4.19;88.50488;932.33;;;;
2023/04/02 05:30:55;;;;;;;0.7;0.7;;;;;;;4.08;88.60449;932.3409;;;;
2023/04/02 05:33:20;;;;;;;1;0.9;;;;;;;4.08;89.1123;932.4047;;;;
2023/04/02 05:35:45;;;;;;;1.2;1.1;;;;;;;4.09;88.76367;932.3994;;;;
2023/04/02 05:38:14;;;;;;;1.3;1;;;;;;;3.95;89.00781;932.4297;;;;
2023/04/02 05:40:39;;;;;;;2.2;1.1;;;;;;;3.93;89.82031;932.425;;;;
2023/04/02 05:43:05;;;;;;;5.7;3.2;;;;;;;4.07;89.09766;932.4509;;;;
2023/04/02 05:45:40;;;;;;;26.4;15.9;;;;;;;4.1;88.91406;932.4288;;;;
2023/04/02 05:48:04;;;;;;;3.2;2.3;;;;;;;4.19;88.5498;932.4553;;;;
2023/04/02 05:50:35;;;;;;;4.1;2.2;;;;;;;4.24;88.30078;932.4756;;;;
2023/04/02 05:52:58;;;;;;;3.9;2.8;;;;;;;4.4;87.64844;932.5606;;;;
2023/04/02 05:55:23;;;;;;;5.6;5;;;;;;;4.5;87.44141;932.5765;;;;
2023/04/02 05:57:48;;;;;;;5.9;3.7;;;;;;;4.48;87.34961;932.6322;;;;
2023/04/02 06:00:16;;;;;;;6.6;3.3;;;;;;;4.52;87.41309;932.6668;;;;
2023/04/02 06:02:46;;;;;;;5.8;3.2;;;;;;;4.74;86.54492;932.5995;;;;
2023/04/02 06:05:12;;;;;;;4.7;2.8;;;;;;;4.93;86.31348;932.5511;;;;
2023/04/02 06:07:43;;;;;;;4.6;2.6;;;;;;;5.09;85.84961;932.6406;;;;
2023/04/02 06:19:20;;;;;;;2.8;1.6;;;;;;;6.62;77.46777;932.7883;;;;
2023/04/02 06:21:34;;;;;;;2.2;1.6;;;;;;;7.91;73.93359;932.7122;;;;
2023/04/02 06:23:59;;;;;;;3.7;1.9;;;;;;;8.55;71.99805;932.6929;;;;
2023/04/02 06:26:27;;;;;;;3.2;2.2;;;;;;;9.82;67.28613;932.7186;;;;
2023/04/02 06:28:52;;;;;;;5.1;3.7;;;;;;;10.52;64.71191;932.756;;;;
2023/04/02 06:31:17;;;;;;;4.7;3.8;;;;;;;10.93;62.06543;932.7724;;;;
2023/04/02 06:33:45;;;;;;;2.9;2.6;;;;;;;10.13;64.67676;932.8008;;;;
2023/04/02 06:42:34;;;;;;;3.2;2.1;;;;;;;10.6;63.20703;932.8683;;;;
2023/04/02 06:44:59;;;;;;;2.6;2.3;;;;;;;11.42;59.18359;932.8209;;;;
2023/04/02 06:47:26;;;;;;;2.3;1.5;;;;;;;10.71;61.86328;932.8407;;;;
2023/04/02 06:49:56;;;;;;;2.4;1.3;;;;;;;10.59;62.16504;932.8906;;;;
2023/04/02 06:52:23;;;;;;;1.2;1.1;;;;;;;10.4;62.65234;932.8488;;;;
2023/04/02 07:07:30;;;;;;;2.5;1.4;;;;;;;13.22;55.25977;932.8778;;;;
2023/04/02 07:09:57;;;;;;;1.4;1.2;;;;;;;11.95;55.16699;932.9451;;;;
2023/04/02 07:12:22;;;;;;;1.3;1;;;;;;;13.07;54.59766;932.8922;;;;
2023/04/02 07:14:53;;;;;;;1.8;0.9;;;;;;;13.46;52.73828;932.8414;;;;
2023/04/02 07:17:18;;;;;;;1.2;1.1;;;;;;;13.37;51.41797;932.8067;;;;
2023/04/02 07:19:44;;;;;;;30.5;16.4;;;;;;;12.3;54.73047;932.9351;;;;
2023/04/02 07:22:08;;;;;;;5.8;3.2;;;;;;;12.44;54.95508;932.9705;;;;
2023/04/02 07:24:39;;;;;;;1.4;1.1;;;;;;;10.98;57.88867;932.9675;;;;
2023/04/02 07:27:09;;;;;;;0.8;0.6;;;;;;;13.58;53.21191;932.8881;;;;
2023/04/02 07:29:41;;;;;;;1.3;1.2;;;;;;;14.1;52.1709;932.8683;;;;
2023/04/02 07:32:05;;;;;;;1.4;1.1;;;;;;;14.77;50.5332;932.8826;;;;
2023/04/02 07:34:32;;;;;;;0.8;0.8;;;;;;;15.03;49.6748;932.8301;;;;
2023/04/02 07:36:57;;;;;;;1.1;0.8;;;;;;;16.01;47.43848;932.8683;;;;
2023/04/02 07:39:25;;;;;;;0.4;0.4;;;;;;;17.25;42.87793;932.8281;;;;
2023/04/02 07:41:50;;;;;;;0.2;0.2;;;;;;;18.26;40.48926;932.8301;;;;
2023/04/02 07:44:21;;;;;;;0.2;0.2;;;;;;;17.91;41.97852;932.8709;;;;
2023/04/02 07:46:47;;;;;;;1;0.5;;;;;;;18.64;40.44238;932.916;;;;
2023/04/02 07:49:15;;;;;;;1;0.6;;;;;;;19.76;38.44727;933.0147;;;;
2023/04/02 07:51:40;;;;;;;1.3;0.4;;;;;;;20.73;35.67969;933.0097;;;;
2023/04/02 07:54:09;;;;;;;0.4;0.4;;;;;;;20.34;36.65234;932.9603;;;;
2023/04/02 07:56:33;;;;;;;0.4;0.2;;;;;;;21.35;34.5127;932.9436;;;;
2023/04/02 07:59:01;;;;;;;0.9;0.3;;;;;;;18.82;38.02637;933.0378;;;;
2023/04/02 08:01:26;;;;;;;1.5;0.6;;;;;;;19.88;38.13086;933.0312;;;;
2023/04/02 08:03:55;;;;;;;0.3;0.3;;;;;;;20.92;35.97559;932.9264;;;;
2023/04/02 08:06:20;;;;;;;0.3;0.3;;;;;;;21.49;33.87891;932.9561;;;;
2023/04/02 08:08:49;;;;;;;0.4;0.4;;;;;;;22.99;32.68945;932.9866;;;;
2023/04/02 08:11:22;;;;;;;0.7;0.4;;;;;;;22.04;34.44824;933.0773;;;;
2023/04/02 08:13:49;;;;;;;1.2;0.6;;;;;;;22.9;32.60156;933.0231;;;;
2023/04/02 08:16:22;;;;;;;0.5;0.5;;;;;;;22.24;32.95215;933.0787;;;;
2023/04/02 08:18:51;;;;;;;0.4;0.4;;;;;;;19.97;36.36523;933.1331;;;;
2023/04/02 08:21:16;;;;;;;0.4;0.4;;;;;;;19.74;37.08008;933.0979;;;;
2023/04/02 08:23:41;;;;;;;1.1;0.4;;;;;;;22.04;34.03906;933.1024;;;;
2023/04/02 08:26:06;;;;;;;0.5;0.4;;;;;;;22.4;32.21289;933.101;;;;
2023/04/02 08:28:34;;;;;;;0.7;0.5;;;;;;;19.59;36.61328;933.16;;;;
2023/04/02 08:31:07;;;;;;;0.3;0.3;;;;;;;19.74;37.31445;933.1178;;;;
2023/04/02 08:33:30;;;;;;;0.8;0.4;;;;;;;18.75;38.71875;933.1652;;;;
2023/04/02 08:42:49;;;;;;;0.6;0.4;;;;;;;17.69;41.38867;933.0633;;;;
2023/04/02 08:45:20;;;;;;;0.9;0.4;;;;;;;19.21;37.4668;933.1174;;;;
2023/04/02 08:47:52;;;;;;;0.6;0.2;;;;;;;20.21;36.18652;933.0625;;;;
2023/04/02 08:50:21;;;;;;;0.3;0.2;;;;;;;20.7;35.0459;933.0859;;;;
2023/04/02 08:52:46;;;;;;;0.2;0.2;;;;;;;21.23;35.06445;933.0614;;;;
2023/04/02 08:55:13;;;;;;;0.8;0.2;;;;;;;23.43;31.04102;933.0493;;;;
2023/04/02 08:57:37;;;;;;;0.3;0.2;;;;;;;25.61;28.53418;933.0309;;;;
2023/04/02 09:00:12;;;;;;;0.3;0.3;;;;;;;25;29.46289;933.0388;;;;
2023/04/02 09:02:39;;;;;;;0.3;0.2;;;;;;;25.64;27.31934;932.9431;;;;
2023/04/02 09:05:04;;;;;;;0.5;0.2;;;;;;;27.66;24.66504;933.0097;;;;
2023/04/02 09:07:31;;;;;;;0.2;0.2;;;;;;;27.93;23.08887;933.0722;;;;
2023/04/02 09:09:55;;;;;;;0.3;0.2;;;;;;;26.41;24.96289;933.0705;;;;
2023/04/02 09:12:41;;;;;;;0.3;0.3;;;;;;;24.4;28.06836;933.0781;;;;
2023/04/02 09:15:07;;;;;;;0.6;0.3;;;;;;;21.17;31.63184;933.1728;;;;
2023/04/02 09:17:32;;;;;;;0.3;0.2;;;;;;;19.94;33.78418;933.2196;;;;
2023/04/02 09:20:04;;;;;;;0.4;0.2;;;;;;;18.75;36.47363;933.2367;;;;
2023/04/02 09:22:28;;;;;;;0.7;0.3;;;;;;;17.45;38.00293;933.2725;;;;
2023/04/02 09:24:56;;;;;;;0.9;0.4;;;;;;;16.72;39.07324;933.274;;;;
2023/04/02 09:27:22;;;;;;;0.3;0.3;;;;;;;16.27;41.16211;933.2723;;;;
2023/04/02 09:29:53;;;;;;;1;0.4;;;;;;;15.41;43.54004;933.3519;;;;
2023/04/02 09:32:23;;;;;;;0.2;0.2;;;;;;;14.62;45.44531;933.3856;;;;
2023/04/02 09:34:49;;;;;;;0.8;0.3;;;;;;;14.56;45.58789;933.3116;;;;
2023/04/02 09:37:14;;;;;;;0.6;0.3;;;;;;;14.85;44.70703;933.3699;;;;
2023/04/02 09:39:39;;;;;;;0.5;0.5;;;;;;;14.84;45.64063;933.4412;;;;
2023/04/02 09:42:04;;;;;;;0.4;0.3;;;;;;;15.48;44.13574;933.4007;;;;
2023/04/02 09:44:31;;;;;;;1.4;0.7;;;;;;;15.69;43.00293;933.4867;;;;
2023/04/02 09:47:04;;;;;;;0.9;0.3;;;;;;;15.56;44.09766;933.4651;;;;
2023/04/02 09:49:29;;;;;;;1.9;0.4;;;;;;;15.15;45.35059;933.5122;;;;
2023/04/02 09:58:11;;;;;;;0.9;0.3;;;;;;;14.32;45.91992;933.5826;;;;
2023/04/02 10:00:27;;;;;;;0.4;0.3;;;;;;;13.81;48.91504;933.618;;;;
2023/04/02 10:03:01;;;;;;;0.7;0.4;;;;;;;13.93;47.66211;933.6635;;;;
2023/04/02 10:05:37;;;;;;;0.3;0.3;;;;;;;13.92;47.33984;933.6931;;;;
2023/04/02 10:08:09;;;;;;;0.6;0.4;;;;;;;13.8;48.78809;933.6589;;;;
2023/04/02 10:10:40;;;;;;;0.4;0.4;;;;;;;13.79;49.32715;933.5999;;;;
2023/04/02 10:13:05;;;;;;;0.5;0.4;;;;;;;13.86;48.17285;933.6914;;;;
2023/04/02 10:15:45;;;;;;;0.5;0.4;;;;;;;13.85;48.64355;933.7395;;;;
2023/04/02 10:18:12;;;;;;;0.7;0.3;;;;;;;13.58;49.16602;933.736;;;;
2023/04/02 10:20:38;;;;;;;1.6;0.6;;;;;;;13.54;51.14941;933.7236;;;;
2023/04/02 10:23:03;;;;;;;0.6;0.4;;;;;;;13.19;51.4541;933.7764;;;;
2023/04/02 10:25:29;;;;;;;0.4;0.4;;;;;;;13.03;52.46875;933.834;;;;
2023/04/02 10:27:54;;;;;;;0.4;0.4;;;;;;;13.04;52.53711;933.8621;;;;
2023/04/02 10:30:23;;;;;;;1.9;0.7;;;;;;;13.22;52.47852;933.8292;;;;
2023/04/02 10:32:57;;;;;;;0.3;0.3;;;;;;;13.3;51.90332;933.8245;;;;
2023/04/02 10:35:23;;;;;;;0.7;0.5;;;;;;;13.47;51.39453;933.7938;;;;
2023/04/02 10:37:48;;;;;;;1.4;0.5;;;;;;;13.32;52.7207;933.8492;;;;
2023/04/02 10:40:18;;;;;;;0.9;0.6;;;;;;;13.51;51.49121;933.8127;;;;
2023/04/02 10:42:45;;;;;;;0.6;0.4;;;;;;;13.59;51.9834;933.784;;;;
2023/04/02 10:45:22;;;;;;;1.4;0.4;;;;;;;13.79;50.25879;933.8279;;;;
2023/04/02 10:47:49;;;;;;;0.6;0.3;;;;;;;13.84;48.44727;933.8212;;;;
2023/04/02 10:50:14;;;;;;;0.6;0.4;;;;;;;13.8;50.43262;933.8149;;;;
2023/04/02 10:52:47;;;;;;;0.5;0.4;;;;;;;13.85;49.85156;933.8795;;;;
2023/04/02 10:55:23;;;;;;;1.1;0.4;;;;;;;13.75;49.94238;933.9667;;;;
2023/04/02 11:01:21;;;;;;;0.7;0.6;;;;;;;13.81;47.99512;933.9766;;;;
2023/04/02 11:03:42;;;;;;;0.7;0.3;;;;;;;13.57;50.47461;934.0002;;;;
2023/04/02 11:06:07;;;;;;;0.7;0.4;;;;;;;13.59;49.02832;933.9456;;;;
2023/04/02 11:08:32;;;;;;;0.5;0.4;;;;;;;13.73;47.99707;934.0012;;;;
2023/04/02 11:10:57;;;;;;;0.8;0.5;;;;;;;13.25;50.78223;934.0497;;;;
2023/04/02 11:13:27;;;;;;;0.9;0.5;;;;;;;13.22;50.1709;934.0747;;;;
2023/04/02 11:15:54;;;;;;;0.3;0.3;;;;;;;13.08;51.10742;934.0455;;;;
2023/04/02 11:18:24;;;;;;;0.9;0.3;;;;;;;12.94;52.47949;934.1325;;;;
2023/04/02 11:20:49;;;;;;;0.6;0.3;;;;;;;13.06;50.24219;934.0776;;;;
2023/04/02 11:23:14;;;;;;;0.9;0.3;;;;;;;13.17;49.12988;934.1448;;;;
2023/04/02 11:25:39;;;;;;;0.5;0.3;;;;;;;13.1;49.43359;934.1404;;;;
2023/04/02 11:28:09;;;;;;;0.4;0.4;;;;;;;13.09;47.80078;934.159;;;;
2023/04/02 11:30:36;;;;;;;0.8;0.5;;;;;;;13.12;50.30762;934.0972;;;;
2023/04/02 11:33:02;;;;;;;0.4;0.4;;;;;;;12.95;52.72266;934.1021;;;;
2023/04/02 11:35:31;;;;;;;0.6;0.4;;;;;;;12.95;52.59668;934.2084;;;;
2023/04/02 11:38:03;;;;;;;0.4;0.3;;;;;;;13.49;49.52246;934.2631;;;;
2023/04/02 11:41:01;;;;;;;0.8;0.3;;;;;;;13.64;49.55176;934.199;;;;
2023/04/02 11:43:32;;;;;;;0.5;0.3;;;;;;;14.11;47.79785;934.1661;;;;
2023/04/02 11:45:58;;;;;;;0.4;0.4;;;;;;;14.69;46.16699;934.2645;;;;
2023/04/02 11:48:23;;;;;;;0.9;0.4;;;;;;;15.63;44.07031;934.2405;;;;
2023/04/02 11:50:48;;;;;;;0.3;0.3;;;;;;;16.24;42.37402;934.2597;;;;
2023/04/02 11:53:18;;;;;;;1.5;0.5;;;;;;;16.89;40.29395;934.2566;;;;
2023/04/02 11:55:44;;;;;;;1;0.4;;;;;;;16.28;42.28516;934.2773;;;;
2023/04/02 11:58:09;;;;;;;0.8;0.2;;;;;;;15.6;43.86035;934.3098;;;;
2023/04/02 12:00:35;;;;;;;0.4;0.3;;;;;;;15.38;44.6582;934.421;;;;
2023/04/02 12:03:02;;;;;;;0.7;0.5;;;;;;;15.1;45.18262;934.3078;;;;
2023/04/02 12:05:24;;;;;;;0.5;0.4;;;;;;;15.04;44.8418;934.3752;;;;
2023/04/02 12:07:53;;;;;;;0.6;0.3;;;;;;;15.21;44.34082;934.3879;;;;
2023/04/02 12:10:19;;;;;;;0.3;0.2;;;;;;;14.72;45.82422;934.4589;;;;
2023/04/02 12:12:44;;;;;;;0.8;0.3;;;;;;;14.68;46.99512;934.5244;;;;
2023/04/02 12:15:17;;;;;;;0.3;0.3;;;;;;;14.58;45.70508;934.4852;;;;
2023/04/02 12:17:43;;;;;;;0.2;0.1;;;;;;;14.17;47.00977;934.4553;;;;
2023/04/02 12:20:08;;;;;;;0.8;0.4;;;;;;;14.52;44.77734;934.486;;;;
2023/04/02 12:22:32;;;;;;;1.1;0.3;;;;;;;14.46;43.88477;934.4634;;;;
2023/04/02 12:24:57;;;;;;;0.4;0.3;;;;;;;14.61;44.79883;934.4856;;;;
2023/04/02 12:27:26;;;;;;;0.2;0.2;;;;;;;14.66;42.29102;934.4661;;;;
2023/04/02 12:29:52;;;;;;;0.4;0.4;;;;;;;14.69;44.29883;934.5363;;;;
2023/04/02 12:32:17;;;;;;;1.3;0.4;;;;;;;14.77;44.87207;934.504;;;;
2023/04/02 12:34:46;;;;;;;0.7;0.7;;;;;;;14.36;45.1416;934.4191;;;;
2023/04/02 12:37:14;;;;;;;1;0.5;;;;;;;14.04;46.51172;934.5616;;;;
2023/04/02 12:39:40;;;;;;;0.4;0.4;;;;;;;13.72;48.18066;934.56;;;;
2023/04/02 12:42:09;;;;;;;2.1;1.7;;;;;;;13.45;49.27734;934.6019;;;;
2023/04/02 12:44:34;;;;;;;0.9;0.9;;;;;;;13.46;48.15137;934.5826;;;;
2023/04/02 12:46:59;;;;;;;0.7;0.4;;;;;;;13.46;49.27832;934.6266;;;;
2023/04/02 12:49:28;;;;;;;0.6;0.5;;;;;;;13.23;48.93066;934.628;;;;
2023/04/02 12:51:57;;;;;;;2;0.8;;;;;;;12.79;51.7041;934.7036;;;;
2023/04/02 12:54:22;;;;;;;0.8;0.5;;;;;;;12.64;55.16211;934.8201;;;;
2023/04/02 12:56:53;;;;;;;1.6;0.9;;;;;;;12.72;57.28516;934.7774;;;;
2023/04/02 12:59:18;;;;;;;0.8;0.5;;;;;;;12.69;57.29102;934.784;;;;
2023/04/02 13:01:45;;;;;;;1;0.5;;;;;;;12.71;57.22461;934.859;;;;
2023/04/02 13:04:11;;;;;;;0.7;0.5;;;;;;;12.73;57.1709;934.886;;;;
2023/04/02 13:06:36;;;;;;;1.5;0.5;;;;;;;12.55;57.33008;934.892;;;;
2023/04/02 13:09:01;;;;;;;1.5;0.7;;;;;;;12.45;58.7168;934.8405;;;;
2023/04/02 13:11:26;;;;;;;1.1;0.5;;;;;;;12.25;58.96387;934.8704;;;;
2023/04/02 13:13:51;;;;;;;1.4;0.5;;;;;;;12.19;59.32422;934.8638;;;;
2023/04/02 13:16:16;;;;;;;1;0.6;;;;;;;12.15;59.78809;934.8886;;;;
2023/04/02 13:18:41;;;;;;;1.6;0.4;;;;;;;12.26;58.88574;934.9158;;;;
2023/04/02 13:21:06;;;;;;;2;0.5;;;;;;;12.25;59.53906;934.9366;;;;
2023/04/02 13:23:32;;;;;;;1.2;0.5;;;;;;;12.32;59.76465;934.9205;;;;
2023/04/02 13:25:57;;;;;;;1.4;0.5;;;;;;;12.36;60;934.8677;;;;
2023/04/02 13:28:23;;;;;;;1.9;0.9;;;;;;;12.21;61.6416;934.9133;;;;
2023/04/02 13:30:49;;;;;;;1.3;0.8;;;;;;;11.97;61.48242;934.9557;;;;
2023/04/02 13:33:15;;;;;;;1.8;1.5;;;;;;;11.9;63.5332;934.9678;;;;
2023/04/02 13:35:40;;;;;;;2.1;1.3;;;;;;;11.93;63.19434;934.9406;;;;
2023/04/02 13:38:08;;;;;;;2.3;1.7;;;;;;;11.89;63.93262;935.0133;;;;
2023/04/02 13:40:33;;;;;;;2;1.7;;;;;;;12.03;63.07129;934.9431;;;;
2023/04/02 13:44:07;;;;;;;3.3;2;;;;;;;11.87;63.89551;935.0085;;;;
2023/04/02 13:46:37;;;;;;;3.2;1.6;;;;;;;11.85;62.85059;935.0101;;;;
2023/04/02 13:49:03;;;;;;;2.5;1.8;;;;;;;11.79;62.79688;935.0203;;;;
2023/04/02 13:51:27;;;;;;;2.5;1.7;;;;;;;11.48;64.86816;935.0228;;;;
2023/04/02 13:53:55;;;;;;;1.3;1.1;;;;;;;11.43;64.96387;935.0188;;;;
2023/04/02 13:56:21;;;;;;;2.1;1.4;;;;;;;11.65;64.56152;935.0909;;;;
2023/04/02 13:58:48;;;;;;;1.3;1.1;;;;;;;11.77;63.74316;935.1205;;;;
2023/04/02 14:01:13;;;;;;;2.5;1.5;;;;;;;11.3;65.87012;935.0623;;;;
2023/04/02 14:03:40;;;;;;;1.9;1;;;;;;;11.63;65.80566;935.1165;;;;
2023/04/02 14:06:06;;;;;;;0.9;0.8;;;;;;;11.75;64.96582;935.1077;;;;
2023/04/02 14:08:30;;;;;;;1.7;0.9;;;;;;;12.03;62.89941;935.1211;;;;
2023/04/02 14:14:08;;;;;;;1;0.9;;;;;;;12.45;62.39746;935.1287;;;;
2023/04/02 14:16:33;;;;;;;0.7;0.6;;;;;;;12.65;60.09766;935.154;;;;
2023/04/02 14:18:59;;;;;;;1.3;0.8;;;;;;;12.52;60.83691;935.1597;;;;
2023/04/02 14:21:27;;;;;;;1.4;0.7;;;;;;;12.61;60.68848;935.2121;;;;
2023/04/02 14:23:52;;;;;;;1.1;0.7;;;;;;;12.42;60.44434;935.1783;;;;
2023/04/02 14:26:17;;;;;;;2.1;0.9;;;;;;;12.33;61.34863;935.2047;;;;
2023/04/02 14:28:42;;;;;;;1.3;0.7;;;;;;;12.34;59.40137;935.2333;;;;
2023/04/02 14:31:07;;;;;;;0.4;0.4;;;;;;;12.39;58.08984;935.1542;;;;
2023/04/02 14:33:32;;;;;;;0.6;0.6;;;;;;;12.33;59.09082;935.1975;;;;
2023/04/02 14:35:57;;;;;;;1.6;0.8;;;;;;;12.32;58.86035;935.1799;;;;
2023/04/02 14:38:23;;;;;;;0.9;0.6;;;;;;;12.32;58.53809;935.1943;;;;
2023/04/02 14:40:48;;;;;;;0.6;0.6;;;;;;;12.12;60.28809;935.2846;;;;
2023/04/02 14:43:13;;;;;;;0.6;0.5;;;;;;;11.92;59.24023;935.2821;;;;
2023/04/02 14:45:38;;;;;;;0.3;0.3;;;;;;;11.9;59.25;935.2997;;;;
2023/04/02 14:48:03;;;;;;;0.6;0.5;;;;;;;11.93;60.61621;935.3268;;;;
2023/04/02 14:50:28;;;;;;;0.8;0.4;;;;;;;11.94;61.60352;935.2988;;;;
2023/04/02 14:52:54;;;;;;;1;0.7;;;;;;;11.91;62.02246;935.3826;;;;
2023/04/02 14:55:19;;;;;;;2.2;1.6;;;;;;;11.95;62.1875;935.4194;;;;
2023/04/02 14:57:47;;;;;;;1.3;1.2;;;;;;;11.86;62.15332;935.3931;;;;
2023/04/02 15:00:14;;;;;;;0.5;0.5;;;;;;;11.7;63.8252;935.4634;;;;
2023/04/02 15:02:45;;;;;;;2.6;0.8;;;;;;;11.7;64.69434;935.4666;;;;
2023/04/02 15:05:14;;;;;;;0.6;0.6;;;;;;;11.63;65.62207;935.5439;;;;
2023/04/02 15:07:38;;;;;;;1.8;1.3;;;;;;;11.3;68.02051;935.5158;;;;
2023/04/02 15:10:10;;;;;;;2.9;1.7;;;;;;;11.49;68.85156;935.5228;;;;
2023/04/02 15:12:35;;;;;;;2;1.6;;;;;;;11.59;68.08887;935.5229;;;;
2023/04/02 15:15:02;;;;;;;2.3;1.2;;;;;;;11.39;70.99609;935.5231;;;;
2023/04/02 15:17:27;;;;;;;2.4;1.8;;;;;;;11.12;75.04688;935.5334;;;;
2023/04/02 15:19:54;;;;;;;2.1;1.7;;;;;;;11.23;74.8584;935.5012;;;;
2023/04/02 15:22:20;;;;;;;0.8;0.8;;;;;;;11.25;75.74316;935.522;;;;
2023/04/02 15:24:46;;;;;;;1;1;;;;;;;11.33;76.2832;935.5715;;;;
2023/04/02 15:27:10;;;;;;;0.9;0.9;;;;;;;11.33;75.20801;935.57;;;;
2023/04/02 15:29:35;;;;;;;1.4;1.1;;;;;;;11.58;74.08496;935.6202;;;;
2023/04/02 15:32:00;;;;;;;0.9;0.6;;;;;;;11.59;70.05762;935.5309;;;;
2023/04/02 15:34:28;;;;;;;0.6;0.6;;;;;;;11.62;71.51758;935.6531;;;;
2023/04/02 15:36:53;;;;;;;1;0.6;;;;;;;11.83;70.06152;935.6387;;;;
2023/04/02 15:39:18;;;;;;;0.9;0.9;;;;;;;11.73;69.29102;935.6238;;;;